sensor_id;sensor_type;location;lat;lon;timestamp;P1;durP1;ratioP1;P2;durP2;ratioP2
52534;SDS011;38443;53.164;5.802;2023-12-14T00:01:26;11.98;;;6.20;;
52534;SDS011;38443;53.164;5.802;2023-12-14T00:06:17;13.43;;;5.93;;
52534;SDS011;38443;53.164;5.802;2023-12-14T00:11:08;12.18;;;6.43;;
52534;SDS011;38443;53.164;5.802;2023-12-14T00:13:34;11.00;;;5.85;;
52534;SDS011;38443;53.164;5.802;2023-12-14T00:18:25;11.52;;;5.65;;
52534;SDS011;38443;53.164;5.802;2023-12-14T00:23:17;14.67;;;6.37;;
52534;SDS011;38443;53.164;5.802;2023-12-14T00:28:08;12.60;;;5.87;;
52534;SDS011;38443;53.164;5.802;2023-12-14T00:32:58;16.80;;;6.60;;
52534;SDS011;38443;53.164;5.802;2023-12-14T00:37:49;9.73;;;5.30;;
52534;SDS011;38443;53.164;5.802;2023-12-14T00:42:39;11.63;;;5.93;;
52534;SDS011;38443;53.164;5.802;2023-12-14T00:47:30;15.50;;;6.60;;
52534;SDS011;38443;53.164;5.802;2023-12-14T00:52:20;10.98;;;6.10;;
52534;SDS011;38443;53.164;5.802;2023-12-14T00:57:11;12.20;;;5.93;;
52534;SDS011;38443;53.164;5.802;2023-12-14T01:02:02;11.47;;;5.80;;
52534;SDS011;38443;53.164;5.802;2023-12-14T01:06:52;13.00;;;5.63;;
52534;SDS011;38443;53.164;5.802;2023-12-14T01:11:43;14.23;;;6.88;;
52534;SDS011;38443;53.164;5.802;2023-12-14T01:16:33;10.23;;;5.50;;
52534;SDS011;38443;53.164;5.802;2023-12-14T01:21:24;10.43;;;5.82;;
52534;SDS011;38443;53.164;5.802;2023-12-14T01:26:15;9.30;;;5.60;;
52534;SDS011;38443;53.164;5.802;2023-12-14T01:31:05;15.43;;;6.73;;
52534;SDS011;38443;53.164;5.802;2023-12-14T01:35:55;11.50;;;5.43;;
52534;SDS011;38443;53.164;5.802;2023-12-14T01:40:46;13.77;;;6.07;;
52534;SDS011;38443;53.164;5.802;2023-12-14T01:45:37;13.02;;;5.13;;
52534;SDS011;38443;53.164;5.802;2023-12-14T01:50:28;13.10;;;6.13;;
52534;SDS011;38443;53.164;5.802;2023-12-14T01:55:19;13.85;;;6.28;;
52534;SDS011;38443;53.164;5.802;2023-12-14T02:00:12;14.20;;;6.23;;
52534;SDS011;38443;53.164;5.802;2023-12-14T02:02:46;13.10;;;5.70;;
52534;SDS011;38443;53.164;5.802;2023-12-14T02:07:37;11.80;;;6.83;;
52534;SDS011;38443;53.164;5.802;2023-12-14T02:12:28;17.48;;;8.25;;
52534;SDS011;38443;53.164;5.802;2023-12-14T02:17:20;18.58;;;6.90;;
52534;SDS011;38443;53.164;5.802;2023-12-14T02:22:11;12.60;;;6.40;;
52534;SDS011;38443;53.164;5.802;2023-12-14T02:27:01;16.80;;;7.20;;
52534;SDS011;38443;53.164;5.802;2023-12-14T02:31:53;11.07;;;6.47;;
52534;SDS011;38443;53.164;5.802;2023-12-14T02:36:45;11.57;;;6.53;;
52534;SDS011;38443;53.164;5.802;2023-12-14T02:41:36;12.10;;;6.90;;
52534;SDS011;38443;53.164;5.802;2023-12-14T02:46:26;17.03;;;8.03;;
52534;SDS011;38443;53.164;5.802;2023-12-14T02:51:17;19.42;;;8.65;;
52534;SDS011;38443;53.164;5.802;2023-12-14T02:56:08;16.30;;;7.50;;
52534;SDS011;38443;53.164;5.802;2023-12-14T02:58:35;14.50;;;8.50;;
52534;SDS011;38443;53.164;5.802;2023-12-14T03:03:25;12.57;;;7.13;;
52534;SDS011;38443;53.164;5.802;2023-12-14T03:08:16;12.63;;;7.17;;
52534;SDS011;38443;53.164;5.802;2023-12-14T03:13:06;16.30;;;8.57;;
52534;SDS011;38443;53.164;5.802;2023-12-14T03:17:57;15.87;;;7.47;;
52534;SDS011;38443;53.164;5.802;2023-12-14T03:22:48;15.43;;;8.68;;
52534;SDS011;38443;53.164;5.802;2023-12-14T03:27:38;13.88;;;6.28;;
52534;SDS011;38443;53.164;5.802;2023-12-14T03:32:32;16.05;;;6.80;;
52534;SDS011;38443;53.164;5.802;2023-12-14T03:37:23;17.35;;;7.68;;
52534;SDS011;38443;53.164;5.802;2023-12-14T03:42:14;21.20;;;7.63;;
52534;SDS011;38443;53.164;5.802;2023-12-14T03:47:04;19.03;;;7.93;;
52534;SDS011;38443;53.164;5.802;2023-12-14T03:51:55;10.98;;;6.50;;
52534;SDS011;38443;53.164;5.802;2023-12-14T03:56:45;15.00;;;6.83;;
52534;SDS011;38443;53.164;5.802;2023-12-14T04:01:36;18.33;;;7.07;;
52534;SDS011;38443;53.164;5.802;2023-12-14T04:04:05;17.65;;;8.13;;
52534;SDS011;38443;53.164;5.802;2023-12-14T04:08:56;14.75;;;6.72;;
52534;SDS011;38443;53.164;5.802;2023-12-14T04:13:46;18.48;;;7.13;;
52534;SDS011;38443;53.164;5.802;2023-12-14T04:16:15;16.67;;;7.78;;
52534;SDS011;38443;53.164;5.802;2023-12-14T04:21:05;14.07;;;6.63;;
52534;SDS011;38443;53.164;5.802;2023-12-14T04:25:56;16.73;;;6.90;;
52534;SDS011;38443;53.164;5.802;2023-12-14T04:30:47;15.17;;;7.07;;
52534;SDS011;38443;53.164;5.802;2023-12-14T04:35:37;18.87;;;7.03;;
52534;SDS011;38443;53.164;5.802;2023-12-14T04:40:28;19.33;;;6.93;;
52534;SDS011;38443;53.164;5.802;2023-12-14T04:45:18;18.13;;;8.53;;
52534;SDS011;38443;53.164;5.802;2023-12-14T04:50:09;19.27;;;7.25;;
52534;SDS011;38443;53.164;5.802;2023-12-14T04:55:00;17.50;;;8.15;;
52534;SDS011;38443;53.164;5.802;2023-12-14T04:59:50;15.75;;;7.13;;
52534;SDS011;38443;53.164;5.802;2023-12-14T05:04:41;16.25;;;7.63;;
52534;SDS011;38443;53.164;5.802;2023-12-14T05:09:31;13.48;;;6.75;;
52534;SDS011;38443;53.164;5.802;2023-12-14T05:14:22;14.95;;;6.85;;
52534;SDS011;38443;53.164;5.802;2023-12-14T05:19:13;18.83;;;8.25;;
52534;SDS011;38443;53.164;5.802;2023-12-14T05:24:04;21.58;;;7.18;;
52534;SDS011;38443;53.164;5.802;2023-12-14T05:28:55;18.08;;;6.95;;
52534;SDS011;38443;53.164;5.802;2023-12-14T05:33:46;13.87;;;7.37;;
52534;SDS011;38443;53.164;5.802;2023-12-14T05:38:40;15.50;;;7.85;;
52534;SDS011;38443;53.164;5.802;2023-12-14T05:41:06;14.25;;;6.80;;
52534;SDS011;38443;53.164;5.802;2023-12-14T05:45:57;16.80;;;8.00;;
52534;SDS011;38443;53.164;5.802;2023-12-14T05:50:48;17.23;;;8.55;;
52534;SDS011;38443;53.164;5.802;2023-12-14T05:55:39;19.80;;;7.57;;
52534;SDS011;38443;53.164;5.802;2023-12-14T05:58:06;16.45;;;7.60;;
52534;SDS011;38443;53.164;5.802;2023-12-14T06:02:58;18.15;;;8.02;;
52534;SDS011;38443;53.164;5.802;2023-12-14T06:07:49;16.33;;;6.97;;
52534;SDS011;38443;53.164;5.802;2023-12-14T06:12:39;17.35;;;7.88;;
52534;SDS011;38443;53.164;5.802;2023-12-14T06:17:30;18.63;;;7.95;;
52534;SDS011;38443;53.164;5.802;2023-12-14T06:19:56;15.73;;;8.00;;
52534;SDS011;38443;53.164;5.802;2023-12-14T06:24:47;18.43;;;7.60;;
52534;SDS011;38443;53.164;5.802;2023-12-14T06:29:37;16.10;;;7.10;;
52534;SDS011;38443;53.164;5.802;2023-12-14T06:34:28;23.75;;;8.02;;
52534;SDS011;38443;53.164;5.802;2023-12-14T06:39:19;15.98;;;7.47;;
52534;SDS011;38443;53.164;5.802;2023-12-14T06:44:09;21.30;;;7.63;;
52534;SDS011;38443;53.164;5.802;2023-12-14T06:49:01;17.92;;;7.20;;
52534;SDS011;38443;53.164;5.802;2023-12-14T06:53:51;16.47;;;7.07;;
52534;SDS011;38443;53.164;5.802;2023-12-14T06:58:43;13.43;;;6.17;;
52534;SDS011;38443;53.164;5.802;2023-12-14T07:01:13;14.05;;;6.38;;
52534;SDS011;38443;53.164;5.802;2023-12-14T07:03:43;13.82;;;6.82;;
52534;SDS011;38443;53.164;5.802;2023-12-14T07:06:16;16.95;;;6.05;;
52534;SDS011;38443;53.164;5.802;2023-12-14T07:08:42;13.55;;;6.78;;
52534;SDS011;38443;53.164;5.802;2023-12-14T07:11:08;11.77;;;6.57;;
52534;SDS011;38443;53.164;5.802;2023-12-14T07:16:02;12.35;;;6.75;;
52534;SDS011;38443;53.164;5.802;2023-12-14T07:18:33;18.33;;;6.80;;
52534;SDS011;38443;53.164;5.802;2023-12-14T07:21:02;17.75;;;6.97;;
52534;SDS011;38443;53.164;5.802;2023-12-14T07:23:27;14.95;;;6.57;;
52534;SDS011;38443;53.164;5.802;2023-12-14T07:28:18;14.50;;;6.40;;
52534;SDS011;38443;53.164;5.802;2023-12-14T07:33:09;20.48;;;7.70;;
52534;SDS011;38443;53.164;5.802;2023-12-14T07:38:00;12.52;;;6.40;;
52534;SDS011;38443;53.164;5.802;2023-12-14T07:42:51;14.73;;;7.80;;
52534;SDS011;38443;53.164;5.802;2023-12-14T07:47:41;16.63;;;6.88;;
52534;SDS011;38443;53.164;5.802;2023-12-14T07:52:33;14.05;;;7.63;;
52534;SDS011;38443;53.164;5.802;2023-12-14T07:54:59;16.30;;;6.72;;
52534;SDS011;38443;53.164;5.802;2023-12-14T07:59:50;13.37;;;7.03;;
52534;SDS011;38443;53.164;5.802;2023-12-14T08:04:41;15.30;;;6.65;;
52534;SDS011;38443;53.164;5.802;2023-12-14T08:09:31;11.10;;;6.40;;
52534;SDS011;38443;53.164;5.802;2023-12-14T08:14:22;11.10;;;6.30;;
52534;SDS011;38443;53.164;5.802;2023-12-14T08:19:12;18.10;;;6.80;;
52534;SDS011;38443;53.164;5.802;2023-12-14T08:24:03;17.42;;;7.25;;
52534;SDS011;38443;53.164;5.802;2023-12-14T08:28:54;13.27;;;6.23;;
52534;SDS011;38443;53.164;5.802;2023-12-14T08:33:45;14.73;;;6.53;;
52534;SDS011;38443;53.164;5.802;2023-12-14T08:38:39;14.10;;;6.82;;
52534;SDS011;38443;53.164;5.802;2023-12-14T08:43:30;15.10;;;7.13;;
52534;SDS011;38443;53.164;5.802;2023-12-14T08:48:20;11.73;;;7.40;;
52534;SDS011;38443;53.164;5.802;2023-12-14T08:53:11;15.82;;;6.80;;
52534;SDS011;38443;53.164;5.802;2023-12-14T08:58:02;11.50;;;6.63;;
52534;SDS011;38443;53.164;5.802;2023-12-14T09:02:52;15.47;;;6.90;;
52534;SDS011;38443;53.164;5.802;2023-12-14T09:07:45;17.90;;;7.75;;
52534;SDS011;38443;53.164;5.802;2023-12-14T09:12:36;17.98;;;7.72;;
52534;SDS011;38443;53.164;5.802;2023-12-14T09:17:27;15.25;;;7.45;;
52534;SDS011;38443;53.164;5.802;2023-12-14T09:19:58;14.70;;;7.15;;
52534;SDS011;38443;53.164;5.802;2023-12-14T09:22:26;15.10;;;7.45;;
52534;SDS011;38443;53.164;5.802;2023-12-14T09:27:17;15.50;;;7.78;;
52534;SDS011;38443;53.164;5.802;2023-12-14T09:32:08;16.05;;;6.88;;
52534;SDS011;38443;53.164;5.802;2023-12-14T09:36:59;16.15;;;7.75;;
52534;SDS011;38443;53.164;5.802;2023-12-14T09:41:50;15.47;;;7.47;;
52534;SDS011;38443;53.164;5.802;2023-12-14T09:44:16;19.38;;;7.85;;
52534;SDS011;38443;53.164;5.802;2023-12-14T09:49:14;15.35;;;7.30;;
52534;SDS011;38443;53.164;5.802;2023-12-14T09:51:40;15.52;;;7.97;;
52534;SDS011;38443;53.164;5.802;2023-12-14T09:56:31;16.17;;;7.13;;
52534;SDS011;38443;53.164;5.802;2023-12-14T10:04:11;20.38;;;10.00;;
52534;SDS011;38443;53.164;5.802;2023-12-14T10:06:42;14.85;;;8.15;;
52534;SDS011;38443;53.164;5.802;2023-12-14T10:09:09;18.23;;;8.07;;
52534;SDS011;38443;53.164;5.802;2023-12-14T10:11:38;17.23;;;8.57;;
52534;SDS011;38443;53.164;5.802;2023-12-14T10:14:26;16.92;;;7.53;;
52534;SDS011;38443;53.164;5.802;2023-12-14T10:16:50;14.88;;;7.55;;
52534;SDS011;38443;53.164;5.802;2023-12-14T10:19:17;14.23;;;7.60;;
52534;SDS011;38443;53.164;5.802;2023-12-14T10:21:43;11.68;;;7.57;;
52534;SDS011;38443;53.164;5.802;2023-12-14T10:24:14;16.75;;;7.47;;
52534;SDS011;38443;53.164;5.802;2023-12-14T10:29:06;15.05;;;7.75;;
52534;SDS011;38443;53.164;5.802;2023-12-14T10:31:31;19.45;;;8.60;;
52534;SDS011;38443;53.164;5.802;2023-12-14T10:34:02;14.55;;;8.27;;
52534;SDS011;38443;53.164;5.802;2023-12-14T10:38:53;14.70;;;6.88;;
52534;SDS011;38443;53.164;5.802;2023-12-14T10:41:22;17.75;;;7.75;;
52534;SDS011;38443;53.164;5.802;2023-12-14T10:43:49;12.52;;;6.90;;
52534;SDS011;38443;53.164;5.802;2023-12-14T10:46:15;14.00;;;7.20;;
52534;SDS011;38443;53.164;5.802;2023-12-14T10:51:11;11.35;;;6.82;;
52534;SDS011;38443;53.164;5.802;2023-12-14T10:53:38;12.85;;;7.22;;
52534;SDS011;38443;53.164;5.802;2023-12-14T11:01:32;16.13;;;7.38;;
52534;SDS011;38443;53.164;5.802;2023-12-14T11:04:00;10.90;;;6.43;;
52534;SDS011;38443;53.164;5.802;2023-12-14T11:09:01;16.17;;;7.57;;
52534;SDS011;38443;53.164;5.802;2023-12-14T11:11:38;13.05;;;7.25;;
52534;SDS011;38443;53.164;5.802;2023-12-14T11:14:07;13.23;;;7.45;;
52534;SDS011;38443;53.164;5.802;2023-12-14T11:16:33;13.45;;;6.97;;
52534;SDS011;38443;53.164;5.802;2023-12-14T11:21:43;15.07;;;8.75;;
52534;SDS011;38443;53.164;5.802;2023-12-14T11:26:33;13.77;;;6.80;;
52534;SDS011;38443;53.164;5.802;2023-12-14T11:31:24;13.65;;;7.38;;
52534;SDS011;38443;53.164;5.802;2023-12-14T11:36:14;15.33;;;7.63;;
52534;SDS011;38443;53.164;5.802;2023-12-14T11:41:06;11.68;;;6.20;;
52534;SDS011;38443;53.164;5.802;2023-12-14T11:46:10;14.98;;;7.10;;
52534;SDS011;38443;53.164;5.802;2023-12-14T11:48:36;11.23;;;6.45;;
52534;SDS011;38443;53.164;5.802;2023-12-14T11:53:26;13.07;;;6.55;;
52534;SDS011;38443;53.164;5.802;2023-12-14T11:58:17;11.48;;;6.45;;
52534;SDS011;38443;53.164;5.802;2023-12-14T12:03:19;15.57;;;6.63;;
52534;SDS011;38443;53.164;5.802;2023-12-14T12:05:47;14.82;;;6.55;;
52534;SDS011;38443;53.164;5.802;2023-12-14T12:08:14;14.25;;;7.13;;
52534;SDS011;38443;53.164;5.802;2023-12-14T12:10:41;11.88;;;6.93;;
52534;SDS011;38443;53.164;5.802;2023-12-14T12:13:08;11.10;;;6.15;;
52534;SDS011;38443;53.164;5.802;2023-12-14T12:15:37;15.80;;;6.22;;
52534;SDS011;38443;53.164;5.802;2023-12-14T12:20:32;16.63;;;6.47;;
52534;SDS011;38443;53.164;5.802;2023-12-14T12:25:23;12.02;;;6.55;;
52534;SDS011;38443;53.164;5.802;2023-12-14T12:30:14;11.37;;;6.27;;
52534;SDS011;38443;53.164;5.802;2023-12-14T12:35:05;11.10;;;6.28;;
52534;SDS011;38443;53.164;5.802;2023-12-14T12:39:56;10.85;;;6.32;;
52534;SDS011;38443;53.164;5.802;2023-12-14T12:44:47;15.67;;;7.07;;
52534;SDS011;38443;53.164;5.802;2023-12-14T12:49:38;14.85;;;6.22;;
52534;SDS011;38443;53.164;5.802;2023-12-14T12:54:30;11.20;;;5.82;;
52534;SDS011;38443;53.164;5.802;2023-12-14T12:56:56;16.85;;;6.97;;
52534;SDS011;38443;53.164;5.802;2023-12-14T13:01:47;11.40;;;6.25;;
52534;SDS011;38443;53.164;5.802;2023-12-14T13:06:45;10.68;;;5.80;;
52534;SDS011;38443;53.164;5.802;2023-12-14T13:11:35;10.85;;;6.28;;
52534;SDS011;38443;53.164;5.802;2023-12-14T13:16:29;13.60;;;6.20;;
52534;SDS011;38443;53.164;5.802;2023-12-14T13:21:20;12.17;;;6.20;;
52534;SDS011;38443;53.164;5.802;2023-12-14T13:23:47;11.98;;;5.93;;
52534;SDS011;38443;53.164;5.802;2023-12-14T13:28:37;11.00;;;6.07;;
52534;SDS011;38443;53.164;5.802;2023-12-14T13:33:28;11.70;;;5.50;;
52534;SDS011;38443;53.164;5.802;2023-12-14T13:38:20;14.18;;;5.85;;
52534;SDS011;38443;53.164;5.802;2023-12-14T13:43:10;13.20;;;5.28;;
52534;SDS011;38443;53.164;5.802;2023-12-14T13:48:04;12.98;;;6.13;;
52534;SDS011;38443;53.164;5.802;2023-12-14T13:52:54;12.40;;;6.07;;
52534;SDS011;38443;53.164;5.802;2023-12-14T13:57:46;14.18;;;5.85;;
52534;SDS011;38443;53.164;5.802;2023-12-14T14:00:12;13.40;;;6.47;;
52534;SDS011;38443;53.164;5.802;2023-12-14T14:05:04;12.15;;;6.30;;
52534;SDS011;38443;53.164;5.802;2023-12-14T14:09:54;14.33;;;5.60;;
52534;SDS011;38443;53.164;5.802;2023-12-14T14:14:45;13.87;;;7.07;;
52534;SDS011;38443;53.164;5.802;2023-12-14T14:19:36;12.27;;;5.80;;
52534;SDS011;38443;53.164;5.802;2023-12-14T14:24:26;9.48;;;5.55;;
52534;SDS011;38443;53.164;5.802;2023-12-14T14:29:17;11.30;;;5.20;;
52534;SDS011;38443;53.164;5.802;2023-12-14T14:31:43;11.85;;;5.70;;
52534;SDS011;38443;53.164;5.802;2023-12-14T14:36:34;12.25;;;6.05;;
52534;SDS011;38443;53.164;5.802;2023-12-14T14:41:24;11.30;;;6.70;;
52534;SDS011;38443;53.164;5.802;2023-12-14T14:46:15;10.98;;;6.40;;
52534;SDS011;38443;53.164;5.802;2023-12-14T14:51:06;15.70;;;7.13;;
52534;SDS011;38443;53.164;5.802;2023-12-14T14:55:57;12.32;;;7.15;;
52534;SDS011;38443;53.164;5.802;2023-12-14T15:00:47;10.57;;;6.28;;
52534;SDS011;38443;53.164;5.802;2023-12-14T15:05:39;14.43;;;6.30;;
52534;SDS011;38443;53.164;5.802;2023-12-14T15:10:31;13.95;;;7.30;;
52534;SDS011;38443;53.164;5.802;2023-12-14T15:15:22;15.03;;;7.67;;
52534;SDS011;38443;53.164;5.802;2023-12-14T15:20:12;14.10;;;7.90;;
52534;SDS011;38443;53.164;5.802;2023-12-14T15:25:03;15.77;;;7.40;;
52534;SDS011;38443;53.164;5.802;2023-12-14T15:27:29;12.32;;;7.00;;
52534;SDS011;38443;53.164;5.802;2023-12-14T15:29:57;13.60;;;6.88;;
52534;SDS011;38443;53.164;5.802;2023-12-14T15:34:48;16.13;;;6.67;;
52534;SDS011;38443;53.164;5.802;2023-12-14T15:39:39;11.35;;;6.30;;
52534;SDS011;38443;53.164;5.802;2023-12-14T15:44:30;14.93;;;7.13;;
52534;SDS011;38443;53.164;5.802;2023-12-14T15:49:21;15.03;;;7.83;;
52534;SDS011;38443;53.164;5.802;2023-12-14T15:54:12;14.73;;;7.78;;
52534;SDS011;38443;53.164;5.802;2023-12-14T15:56:38;16.88;;;8.55;;
52534;SDS011;38443;53.164;5.802;2023-12-14T16:01:30;13.50;;;7.68;;
52534;SDS011;38443;53.164;5.802;2023-12-14T16:06:20;14.63;;;7.47;;
52534;SDS011;38443;53.164;5.802;2023-12-14T16:11:11;13.25;;;6.50;;
52534;SDS011;38443;53.164;5.802;2023-12-14T16:13:38;14.13;;;7.13;;
52534;SDS011;38443;53.164;5.802;2023-12-14T16:18:29;15.98;;;7.72;;
52534;SDS011;38443;53.164;5.802;2023-12-14T16:23:20;17.20;;;7.32;;
52534;SDS011;38443;53.164;5.802;2023-12-14T16:28:10;15.73;;;7.07;;
52534;SDS011;38443;53.164;5.802;2023-12-14T16:33:01;16.27;;;7.47;;
52534;SDS011;38443;53.164;5.802;2023-12-14T16:37:51;14.90;;;7.78;;
52534;SDS011;38443;53.164;5.802;2023-12-14T16:42:42;17.42;;;8.43;;
52534;SDS011;38443;53.164;5.802;2023-12-14T16:47:35;16.52;;;8.75;;
52534;SDS011;38443;53.164;5.802;2023-12-14T16:52:26;15.25;;;7.90;;
52534;SDS011;38443;53.164;5.802;2023-12-14T16:57:16;18.90;;;8.33;;
52534;SDS011;38443;53.164;5.802;2023-12-14T17:02:09;13.63;;;7.03;;
52534;SDS011;38443;53.164;5.802;2023-12-14T17:06:59;16.70;;;8.90;;
52534;SDS011;38443;53.164;5.802;2023-12-14T17:11:52;16.77;;;8.55;;
52534;SDS011;38443;53.164;5.802;2023-12-14T17:16:45;19.48;;;8.05;;
52534;SDS011;38443;53.164;5.802;2023-12-14T17:19:11;15.13;;;8.35;;
52534;SDS011;38443;53.164;5.802;2023-12-14T17:24:02;17.13;;;8.52;;
52534;SDS011;38443;53.164;5.802;2023-12-14T17:26:28;16.17;;;8.43;;
52534;SDS011;38443;53.164;5.802;2023-12-14T17:31:20;18.75;;;7.28;;
52534;SDS011;38443;53.164;5.802;2023-12-14T17:33:47;13.88;;;7.20;;
52534;SDS011;38443;53.164;5.802;2023-12-14T17:38:38;13.57;;;7.70;;
52534;SDS011;38443;53.164;5.802;2023-12-14T17:43:35;15.05;;;7.13;;
52534;SDS011;38443;53.164;5.802;2023-12-14T17:48:27;20.53;;;9.07;;
52534;SDS011;38443;53.164;5.802;2023-12-14T17:55:45;14.05;;;7.75;;
52534;SDS011;38443;53.164;5.802;2023-12-14T18:00:36;18.77;;;7.43;;
52534;SDS011;38443;53.164;5.802;2023-12-14T18:05:29;16.00;;;8.13;;
52534;SDS011;38443;53.164;5.802;2023-12-14T18:10:19;18.73;;;9.23;;
52534;SDS011;38443;53.164;5.802;2023-12-14T18:15:11;20.98;;;8.90;;
52534;SDS011;38443;53.164;5.802;2023-12-14T18:20:01;18.57;;;8.90;;
52534;SDS011;38443;53.164;5.802;2023-12-14T18:24:52;19.90;;;10.07;;
52534;SDS011;38443;53.164;5.802;2023-12-14T18:29:43;22.50;;;9.27;;
52534;SDS011;38443;53.164;5.802;2023-12-14T18:34:36;19.17;;;9.20;;
52534;SDS011;38443;53.164;5.802;2023-12-14T18:37:06;18.83;;;10.30;;
52534;SDS011;38443;53.164;5.802;2023-12-14T18:41:57;22.60;;;10.15;;
52534;SDS011;38443;53.164;5.802;2023-12-14T18:46:48;27.17;;;8.90;;
52534;SDS011;38443;53.164;5.802;2023-12-14T18:51:38;22.47;;;9.80;;
52534;SDS011;38443;53.164;5.802;2023-12-14T18:56:29;22.50;;;10.25;;
52534;SDS011;38443;53.164;5.802;2023-12-14T19:01:20;23.30;;;9.45;;
52534;SDS011;38443;53.164;5.802;2023-12-14T19:06:11;21.90;;;9.43;;
52534;SDS011;38443;53.164;5.802;2023-12-14T19:11:05;24.60;;;10.63;;
52534;SDS011;38443;53.164;5.802;2023-12-14T19:15:57;20.77;;;9.10;;
52534;SDS011;38443;53.164;5.802;2023-12-14T19:20:48;25.52;;;11.32;;
52534;SDS011;38443;53.164;5.802;2023-12-14T19:25:38;26.00;;;10.60;;
52534;SDS011;38443;53.164;5.802;2023-12-14T19:30:29;25.75;;;10.20;;
52534;SDS011;38443;53.164;5.802;2023-12-14T19:35:20;20.60;;;9.07;;
52534;SDS011;38443;53.164;5.802;2023-12-14T19:40:13;21.77;;;10.77;;
52534;SDS011;38443;53.164;5.802;2023-12-14T19:42:40;26.23;;;10.00;;
52534;SDS011;38443;53.164;5.802;2023-12-14T19:47:31;19.33;;;9.20;;
52534;SDS011;38443;53.164;5.802;2023-12-14T19:49:58;21.13;;;9.88;;
52534;SDS011;38443;53.164;5.802;2023-12-14T19:52:24;31.73;;;10.13;;
52534;SDS011;38443;53.164;5.802;2023-12-14T19:54:53;22.67;;;10.32;;
52534;SDS011;38443;53.164;5.802;2023-12-14T19:59:44;22.90;;;10.60;;
52534;SDS011;38443;53.164;5.802;2023-12-14T20:02:12;24.42;;;10.93;;
52534;SDS011;38443;53.164;5.802;2023-12-14T20:07:02;23.90;;;12.03;;
52534;SDS011;38443;53.164;5.802;2023-12-14T20:11:53;24.53;;;9.57;;
52534;SDS011;38443;53.164;5.802;2023-12-14T20:16:47;26.00;;;11.33;;
52534;SDS011;38443;53.164;5.802;2023-12-14T20:19:12;22.20;;;11.00;;
52534;SDS011;38443;53.164;5.802;2023-12-14T20:24:04;22.50;;;9.83;;
52534;SDS011;38443;53.164;5.802;2023-12-14T20:26:30;16.50;;;9.57;;
52534;SDS011;38443;53.164;5.802;2023-12-14T20:28:57;19.55;;;9.70;;
52534;SDS011;38443;53.164;5.802;2023-12-14T20:33:48;19.73;;;10.10;;
52534;SDS011;38443;53.164;5.802;2023-12-14T20:38:39;24.65;;;9.82;;
52534;SDS011;38443;53.164;5.802;2023-12-14T22:53:05;16.40;;;7.83;;
52534;SDS011;38443;53.164;5.802;2023-12-14T22:57:56;13.13;;;8.10;;
52534;SDS011;38443;53.164;5.802;2023-12-14T23:02:50;12.95;;;8.10;;
52534;SDS011;38443;53.164;5.802;2023-12-14T23:07:41;17.90;;;9.35;;
52534;SDS011;38443;53.164;5.802;2023-12-14T23:12:32;18.25;;;10.20;;
52534;SDS011;38443;53.164;5.802;2023-12-14T23:17:28;18.50;;;9.25;;
52534;SDS011;38443;53.164;5.802;2023-12-14T23:19:55;19.05;;;10.75;;
52534;SDS011;38443;53.164;5.802;2023-12-14T23:24:46;18.73;;;10.53;;
52534;SDS011;38443;53.164;5.802;2023-12-14T23:29:38;23.40;;;10.83;;
52534;SDS011;38443;53.164;5.802;2023-12-14T23:32:04;22.08;;;11.20;;
52534;SDS011;38443;53.164;5.802;2023-12-14T23:34:30;21.88;;;12.25;;
52534;SDS011;38443;53.164;5.802;2023-12-14T23:39:20;22.33;;;11.97;;
52534;SDS011;38443;53.164;5.802;2023-12-14T23:44:11;21.90;;;12.02;;
52534;SDS011;38443;53.164;5.802;2023-12-14T23:49:02;23.33;;;11.77;;
52534;SDS011;38443;53.164;5.802;2023-12-14T23:53:52;27.95;;;13.00;;
52534;SDS011;38443;53.164;5.802;2023-12-14T23:58:43;28.77;;;13.63;;
